Time;durP1;ratioP1;P1;durP2;ratioP2;P2;SDS_P1;SDS_P2;PMS_P1;PMS_P2;Temp;Humidity;BMP_temperature;BMP_pressure;BME280_temperature;BME280_humidity;BME280_pressure;Samples;Min_cycle;Max_cycle;Signal;HPM_P1;HPM_P2
2021/12/17 00:04:56;;;;;;;25.42;13.93;;;11.60;99.90;;;;;;4965185;28;20279;-70
2021/12/17 00:07:24;;;;;;;22.73;13.45;;;11.60;99.90;;;;;;4980430;28;20188;-71
2021/12/17 00:09:54;;;;;;;24.48;14.55;;;11.60;99.90;;;;;;4959703;28;20196;-70
2021/12/17 00:12:23;;;;;;;22.98;12.82;;;11.60;99.90;;;;;;4962091;28;20197;-71
2021/12/17 00:14:50;;;;;;;20.55;12.77;;;11.60;99.90;;;;;;4958239;28;20184;-69
2021/12/17 00:17:26;;;;;;;23.90;12.88;;;11.60;99.90;;;;;;4953435;28;20291;-70
2021/12/17 00:40:11;;;;;;;18.23;11.30;;;11.60;99.90;;;;;;4982364;28;20188;-70
2021/12/17 00:53:00;;;;;;;18.10;9.88;;;11.70;99.90;;;;;;4963989;28;20266;-70
2021/12/17 00:55:28;;;;;;;15.75;9.93;;;11.60;99.90;;;;;;4972580;28;20185;-69
2021/12/17 00:57:54;;;;;;;18.38;10.63;;;11.60;99.90;;;;;;4965664;28;20193;-68
2021/12/17 01:00:26;;;;;;;15.75;9.52;;;11.60;99.90;;;;;;4966593;28;20267;-69
2021/12/17 01:02:58;;;;;;;13.40;8.40;;;11.70;99.90;;;;;;4975718;28;20181;-69
2021/12/17 01:05:29;;;;;;;15.02;8.50;;;11.60;99.90;;;;;;4973375;28;20177;-70
2021/12/17 01:08:02;;;;;;;11.75;7.00;;;11.60;99.90;;;;;;5001472;28;20184;-70
2021/12/17 01:10:41;;;;;;;10.45;6.70;;;11.60;99.90;;;;;;4971433;28;20187;-69
2021/12/17 01:13:08;;;;;;;10.18;5.90;;;11.60;99.90;;;;;;4968128;28;20264;-70
2021/12/17 01:15:35;;;;;;;11.00;5.88;;;11.60;99.90;;;;;;4964669;28;20385;-70
2021/12/17 01:18:07;;;;;;;9.60;5.68;;;11.60;99.90;;;;;;4967746;28;20207;-70
2021/12/17 01:21:04;;;;;;;9.10;5.70;;;11.60;99.90;;;;;;4961868;28;20173;-70
2021/12/17 01:42:58;;;;;;;5.30;3.50;;;11.60;99.90;;;;;;4975240;28;20243;-69
2021/12/17 01:45:29;;;;;;;4.95;3.28;;;11.70;99.90;;;;;;4960139;28;20237;-69
2021/12/17 01:47:55;;;;;;;5.70;3.60;;;11.60;99.90;;;;;;4967369;28;20278;-69
2021/12/17 01:56:05;;;;;;;5.40;3.35;;;11.70;99.90;;;;;;4973615;28;20187;-69
2021/12/17 02:01:16;;;;;;;4.15;2.97;;;11.70;99.90;;;;;;4960126;28;20266;-69
2021/12/17 02:03:41;;;;;;;3.72;2.92;;;11.70;99.90;;;;;;4966388;28;20338;-69
2021/12/17 02:06:09;;;;;;;4.07;3.00;;;11.70;99.90;;;;;;4966883;28;20259;-68
2021/12/17 02:08:37;;;;;;;5.03;3.22;;;11.70;99.90;;;;;;4991773;28;20207;-70
2021/12/17 02:30:12;;;;;;;4.10;2.63;;;11.60;99.90;;;;;;4966856;28;20283;-69
2021/12/17 02:32:39;;;;;;;4.13;2.63;;;11.60;99.90;;;;;;4996746;28;20176;-70
2021/12/17 02:37:41;;;;;;;4.03;2.45;;;11.60;99.90;;;;;;4970556;28;20169;-69
2021/12/17 02:45:32;;;;;;;3.78;2.85;;;11.60;99.90;;;;;;4965329;28;20196;-69
2021/12/17 02:48:10;;;;;;;2.90;2.50;;;11.60;99.90;;;;;;4970255;28;20270;-70
2021/12/17 02:50:46;;;;;;;3.38;2.78;;;11.60;99.90;;;;;;4960471;28;20410;-69
2021/12/17 02:53:12;;;;;;;3.60;2.55;;;11.60;99.90;;;;;;4969870;28;20171;-70
2021/12/17 02:55:43;;;;;;;4.60;3.08;;;11.60;99.90;;;;;;4970222;28;20188;-70
2021/12/17 02:58:12;;;;;;;3.97;3.00;;;11.60;99.90;;;;;;4992094;28;20249;-70
2021/12/17 03:00:40;;;;;;;4.18;3.13;;;11.60;99.90;;;;;;4964170;28;20200;-69
2021/12/17 03:03:09;;;;;;;3.88;2.88;;;11.60;99.90;;;;;;4964778;28;20259;-70
2021/12/17 03:05:39;;;;;;;4.65;3.50;;;11.60;99.90;;;;;;4965398;28;20169;-68
2021/12/17 03:08:12;;;;;;;3.72;3.20;;;11.60;99.90;;;;;;4982289;28;20239;-68
2021/12/17 03:10:41;;;;;;;3.70;3.10;;;11.60;99.90;;;;;;4961482;28;20226;-69
2021/12/17 03:13:11;;;;;;;4.75;3.28;;;11.60;99.90;;;;;;4968728;28;20444;-69
2021/12/17 03:15:50;;;;;;;4.15;3.28;;;11.50;99.90;;;;;;4967826;28;20259;-70
2021/12/17 03:23:47;;;;;;;4.95;3.25;;;11.50;99.90;;;;;;4961509;28;20202;-69
2021/12/17 03:26:20;;;;;;;3.65;3.05;;;11.50;99.90;;;;;;4968563;28;20290;-70
2021/12/17 03:28:51;;;;;;;4.40;3.30;;;11.50;99.90;;;;;;4975321;28;20287;-67
2021/12/17 03:31:21;;;;;;;5.38;3.92;;;11.50;99.90;;;;;;4980974;28;20187;-70
2021/12/17 03:33:51;;;;;;;5.93;3.40;;;11.40;99.90;;;;;;4968176;28;20180;-69
2021/12/17 03:36:21;;;;;;;5.43;3.83;;;11.40;99.90;;;;;;4965613;28;20192;-68
2021/12/17 03:38:49;;;;;;;4.50;3.42;;;11.40;99.90;;;;;;4965762;28;20337;-69
2021/12/17 03:43:46;;;;;;;5.57;3.85;;;11.40;99.90;;;;;;4960433;28;20181;-70
2021/12/17 03:46:12;;;;;;;4.80;3.55;;;11.40;99.90;;;;;;4976724;28;20223;-70
2021/12/17 03:48:41;;;;;;;5.25;3.70;;;11.40;99.90;;;;;;4957735;28;20215;-67
2021/12/17 03:51:14;;;;;;;5.50;3.97;;;11.40;99.90;;;;;;4981976;28;20176;-70
2021/12/17 03:53:53;;;;;;;4.68;3.33;;;11.40;99.90;;;;;;4958911;28;20204;-70
2021/12/17 03:56:23;;;;;;;4.60;3.40;;;11.40;99.90;;;;;;4970090;28;20206;-69
2021/12/17 03:58:51;;;;;;;4.70;3.63;;;11.40;99.90;;;;;;4965144;28;20185;-69
2021/12/17 04:01:17;;;;;;;5.75;3.97;;;11.40;99.90;;;;;;4997532;28;20287;-70
2021/12/17 04:03:45;;;;;;;4.80;3.65;;;11.40;99.90;;;;;;4972409;28;20268;-69
2021/12/17 04:06:13;;;;;;;6.72;3.92;;;11.40;99.90;;;;;;4976461;28;20181;-70
2021/12/17 04:08:43;;;;;;;5.00;3.65;;;11.40;99.90;;;;;;4968304;28;20210;-70
2021/12/17 04:11:16;;;;;;;4.45;3.40;;;11.40;99.90;;;;;;4975043;28;20215;-69
2021/12/17 04:13:52;;;;;;;5.05;3.60;;;11.40;99.90;;;;;;4972814;28;20184;-70
2021/12/17 04:16:22;;;;;;;4.72;3.42;;;11.40;99.90;;;;;;4968610;28;20178;-68
2021/12/17 04:18:47;;;;;;;4.57;3.55;;;11.40;99.90;;;;;;4985572;28;20233;-69
2021/12/17 04:21:18;;;;;;;5.35;3.60;;;11.40;99.90;;;;;;4974127;28;20217;-70
2021/12/17 04:23:48;;;;;;;4.40;3.30;;;11.40;99.90;;;;;;4960923;28;20184;-68
2021/12/17 04:26:16;;;;;;;6.05;3.88;;;11.40;99.90;;;;;;4965015;28;20195;-69
2021/12/17 04:28:46;;;;;;;5.10;3.58;;;11.40;99.90;;;;;;4968891;28;20268;-70
2021/12/17 04:31:15;;;;;;;6.45;4.05;;;11.40;99.90;;;;;;4973358;28;20213;-70
2021/12/17 04:33:44;;;;;;;6.30;4.38;;;11.40;99.90;;;;;;4967969;28;20177;-68
2021/12/17 04:36:21;;;;;;;5.93;4.07;;;11.40;99.90;;;;;;4960702;28;20176;-69
2021/12/17 04:38:51;;;;;;;6.07;4.38;;;11.40;99.90;;;;;;4959248;28;20208;-70
2021/12/17 04:44:37;;;;;;;7.95;4.55;;;11.40;99.90;;;;;;4957968;28;20180;-70
2021/12/17 04:59:43;;;;;;;6.70;4.93;;;11.40;99.90;;;;;;4961390;28;20280;-69
2021/12/17 05:02:09;;;;;;;9.43;4.95;;;11.40;99.90;;;;;;4963492;28;20203;-68
2021/12/17 05:04:35;;;;;;;6.65;4.63;;;11.40;99.90;;;;;;4967960;28;20361;-69
2021/12/17 05:07:03;;;;;;;8.30;4.90;;;11.40;99.90;;;;;;4955097;28;20184;-69
2021/12/17 05:09:40;;;;;;;6.70;4.90;;;11.40;99.90;;;;;;4976082;28;20205;-70
2021/12/17 05:20:29;;;;;;;5.43;4.22;;;11.40;99.90;;;;;;4961867;28;20238;-70
2021/12/17 05:22:58;;;;;;;4.15;3.35;;;11.40;99.90;;;;;;5003714;28;20180;-69
2021/12/17 05:25:27;;;;;;;5.50;3.75;;;11.40;99.90;;;;;;4953852;28;20188;-69
2021/12/17 05:28:00;;;;;;;5.53;4.00;;;11.40;99.90;;;;;;4991961;28;20213;-69
2021/12/17 05:30:27;;;;;;;4.50;3.63;;;11.40;99.90;;;;;;4961593;28;20272;-69
2021/12/17 05:32:55;;;;;;;5.50;3.72;;;11.30;99.90;;;;;;4965789;28;20256;-69
2021/12/17 05:35:27;;;;;;;4.97;3.40;;;11.30;99.90;;;;;;5015320;28;20183;-69
2021/12/17 05:37:54;;;;;;;3.85;3.00;;;11.30;99.90;;;;;;5001651;28;20449;-67
2021/12/17 05:40:20;;;;;;;4.35;3.20;;;11.30;99.90;;;;;;4967506;28;20187;-69
2021/12/17 05:42:49;;;;;;;4.78;3.30;;;11.30;99.90;;;;;;4981562;28;20180;-67
2021/12/17 05:45:33;;;;;;;4.63;3.42;;;11.30;99.90;;;;;;4963033;28;20173;-68
2021/12/17 05:48:09;;;;;;;4.18;3.10;;;11.30;99.90;;;;;;4981843;28;20200;-69
2021/12/17 05:50:42;;;;;;;4.22;2.90;;;11.30;99.90;;;;;;4970987;28;20178;-68
2021/12/17 05:53:07;;;;;;;4.90;3.00;;;11.30;99.90;;;;;;4972096;28;20173;-69
2021/12/17 05:55:37;;;;;;;4.07;3.10;;;11.30;99.90;;;;;;4978570;28;20200;-69
2021/12/17 05:58:07;;;;;;;3.72;2.85;;;11.30;99.90;;;;;;4967444;28;20221;-69
2021/12/17 06:00:33;;;;;;;3.47;2.67;;;11.30;99.90;;;;;;4975452;28;20428;-69
2021/12/17 06:03:00;;;;;;;3.83;2.90;;;11.30;99.90;;;;;;4972093;28;20177;-69
2021/12/17 06:05:27;;;;;;;3.50;2.75;;;11.30;99.90;;;;;;4984229;28;20180;-68
2021/12/17 06:07:55;;;;;;;3.90;2.92;;;11.30;99.90;;;;;;4974797;28;20218;-68
2021/12/17 06:10:21;;;;;;;3.55;2.70;;;11.30;99.90;;;;;;4970549;28;20376;-69
2021/12/17 06:12:48;;;;;;;5.47;3.33;;;11.40;99.90;;;;;;4959879;28;20200;-69
2021/12/17 06:15:17;;;;;;;4.20;2.90;;;11.30;99.90;;;;;;4965023;28;20241;-67
2021/12/17 06:17:43;;;;;;;3.47;2.70;;;11.30;99.90;;;;;;4969081;28;20210;-69
2021/12/17 06:20:12;;;;;;;3.95;2.97;;;11.30;99.90;;;;;;4961504;28;20253;-69
2021/12/17 06:22:40;;;;;;;4.32;3.13;;;11.30;99.90;;;;;;4979433;28;20199;-68
2021/12/17 06:25:10;;;;;;;4.68;2.97;;;11.30;99.90;;;;;;4961613;28;20177;-68
2021/12/17 06:27:38;;;;;;;4.68;3.42;;;11.30;99.90;;;;;;4966925;28;20173;-68
2021/12/17 06:30:07;;;;;;;4.32;3.28;;;11.30;99.90;;;;;;4975290;28;20208;-69
2021/12/17 06:32:33;;;;;;;5.05;3.38;;;11.30;99.90;;;;;;4960496;28;20181;-69
2021/12/17 06:35:00;;;;;;;5.50;3.70;;;11.30;99.90;;;;;;4981042;28;20258;-69
2021/12/17 06:37:26;;;;;;;4.97;3.67;;;11.30;99.90;;;;;;4965414;28;20180;-69
2021/12/17 06:39:52;;;;;;;4.07;3.40;;;11.30;99.90;;;;;;4959643;28;20189;-68
2021/12/17 06:42:20;;;;;;;5.35;3.53;;;11.30;99.90;;;;;;4980073;28;20302;-68
2021/12/17 06:44:47;;;;;;;4.38;3.30;;;11.30;99.90;;;;;;4975426;28;20189;-68
2021/12/17 06:47:32;;;;;;;4.45;3.30;;;11.30;99.90;;;;;;4958824;28;20280;-69
2021/12/17 07:17:38;;;;;;;5.53;3.58;;;11.20;99.90;;;;;;4966795;28;20245;-65
2021/12/17 07:33:57;;;;;;;3.83;3.30;;;11.30;99.90;;;;;;4970364;28;20239;-69
2021/12/17 07:36:16;;;;;;;3.60;2.70;;;11.30;99.90;;;;;;4959477;28;20188;-69
2021/12/17 07:38:49;;;;;;;2.90;2.45;;;11.30;99.90;;;;;;4973222;28;20188;-68
2021/12/17 07:41:16;;;;;;;4.28;2.88;;;11.30;99.90;;;;;;4969257;28;20215;-70
2021/12/17 07:43:52;;;;;;;3.85;2.70;;;11.30;99.90;;;;;;4969760;28;20241;-70
2021/12/17 07:46:19;;;;;;;2.70;2.35;;;11.30;99.90;;;;;;4960844;28;20265;-69
2021/12/17 07:48:48;;;;;;;3.22;2.50;;;11.20;99.90;;;;;;4981593;28;20265;-69
2021/12/17 07:51:21;;;;;;;3.70;2.78;;;11.20;99.90;;;;;;4962924;28;20210;-69
2021/12/17 07:53:47;;;;;;;4.32;2.78;;;11.20;99.90;;;;;;4965559;28;20204;-70
2021/12/17 07:56:18;;;;;;;3.70;2.95;;;11.20;99.90;;;;;;4976150;28;20163;-69
2021/12/17 07:58:46;;;;;;;3.75;2.97;;;11.20;99.90;;;;;;4974131;28;20229;-70
2021/12/17 08:01:15;;;;;;;4.25;3.20;;;11.20;99.90;;;;;;4983186;28;20184;-70
2021/12/17 08:03:42;;;;;;;4.72;3.45;;;11.20;99.90;;;;;;4974314;28;20256;-70
2021/12/17 08:06:08;;;;;;;4.50;3.47;;;11.20;99.90;;;;;;4975660;28;20203;-69
2021/12/17 08:08:34;;;;;;;4.53;3.22;;;11.20;99.90;;;;;;4963834;28;20282;-70
2021/12/17 08:11:00;;;;;;;4.53;3.38;;;11.20;99.90;;;;;;4963274;28;20271;-70
2021/12/17 08:13:29;;;;;;;3.90;2.95;;;11.20;99.90;;;;;;5039287;28;20354;-70
2021/12/17 08:18:42;;;;;;;4.03;3.30;;;11.20;99.90;;;;;;4998126;28;20175;-70
2021/12/17 08:27:11;;;;;;;3.38;2.72;;;11.20;99.90;;;;;;5009637;28;20182;-69
2021/12/17 08:29:52;;;;;;;3.28;2.80;;;11.20;99.90;;;;;;4978648;28;20421;-70
2021/12/17 08:32:17;;;;;;;3.35;2.78;;;11.20;99.90;;;;;;4973443;28;20172;-69
2021/12/17 08:34:43;;;;;;;4.55;3.20;;;11.20;99.90;;;;;;4970416;28;20184;-70
2021/12/17 08:37:11;;;;;;;5.28;3.90;;;11.20;99.90;;;;;;4959671;28;20184;-70
2021/12/17 08:39:37;;;;;;;5.68;3.75;;;11.20;99.90;;;;;;4977860;28;20201;-70
2021/12/17 08:42:03;;;;;;;4.30;3.63;;;11.20;99.90;;;;;;4967080;28;20199;-69
2021/12/17 08:44:29;;;;;;;4.10;3.35;;;11.30;99.90;;;;;;4955191;28;20277;-70
2021/12/17 08:46:57;;;;;;;3.38;3.08;;;11.30;99.90;;;;;;4963320;28;20496;-69
2021/12/17 08:49:25;;;;;;;3.70;3.10;;;11.20;99.90;;;;;;4962021;28;20282;-70
2021/12/17 08:51:54;;;;;;;4.43;3.78;;;11.30;99.90;;;;;;4954088;28;20929;-70
2021/12/17 08:54:22;;;;;;;4.30;3.45;;;11.30;99.90;;;;;;4967614;28;20247;-68
2021/12/17 08:56:49;;;;;;;4.82;3.85;;;11.30;99.90;;;;;;4967708;28;20180;-70
2021/12/17 08:59:18;;;;;;;4.72;3.80;;;11.30;99.90;;;;;;4951776;28;20209;-70
2021/12/17 09:01:45;;;;;;;6.82;4.25;;;11.30;99.90;;;;;;4977793;28;20216;-70
2021/12/17 09:04:11;;;;;;;5.28;3.83;;;11.40;99.90;;;;;;4960763;28;20181;-70
2021/12/17 09:06:37;;;;;;;4.13;3.05;;;11.40;99.90;;;;;;4963140;28;20241;-69
2021/12/17 09:09:03;;;;;;;4.88;3.58;;;11.40;99.90;;;;;;4962839;28;20204;-70
2021/12/17 09:11:29;;;;;;;4.55;3.30;;;11.40;99.90;;;;;;4965927;28;20188;-70
2021/12/17 09:14:01;;;;;;;4.28;3.15;;;11.40;99.90;;;;;;4966624;28;20188;-70
2021/12/17 09:16:30;;;;;;;4.15;3.20;;;11.40;99.90;;;;;;4963681;28;20238;-70
2021/12/17 09:18:57;;;;;;;4.07;3.40;;;11.40;99.90;;;;;;4954331;28;20181;-70
2021/12/17 09:21:23;;;;;;;5.13;3.75;;;11.40;99.90;;;;;;4973620;28;20192;-70
2021/12/17 09:23:51;;;;;;;5.03;3.22;;;11.50;99.90;;;;;;4967665;28;20214;-69
2021/12/17 09:26:18;;;;;;;3.67;2.95;;;11.50;99.90;;;;;;4965949;28;20283;-70
2021/12/17 09:28:43;;;;;;;3.38;2.80;;;11.50;99.90;;;;;;4965269;28;20220;-70
2021/12/17 09:31:11;;;;;;;4.78;2.78;;;11.50;99.90;;;;;;4972186;28;20248;-69
2021/12/17 09:33:41;;;;;;;3.78;3.08;;;11.50;99.90;;;;;;4960138;28;20192;-69
2021/12/17 09:36:09;;;;;;;4.28;3.20;;;11.50;99.90;;;;;;4972083;28;20207;-69
2021/12/17 09:38:37;;;;;;;3.47;2.92;;;11.50;99.90;;;;;;4970867;28;20268;-68
2021/12/17 09:41:05;;;;;;;3.38;2.90;;;11.50;99.90;;;;;;4957068;28;20192;-69
2021/12/17 09:43:32;;;;;;;4.15;3.10;;;11.40;99.90;;;;;;4972184;28;20205;-69
2021/12/17 09:46:03;;;;;;;4.18;3.00;;;11.40;99.90;;;;;;4960551;28;20191;-68
2021/12/17 09:48:31;;;;;;;3.88;3.13;;;11.40;99.90;;;;;;4961028;28;20220;-69
2021/12/17 09:51:01;;;;;;;5.47;3.17;;;11.40;99.90;;;;;;4972880;28;20261;-69
2021/12/17 09:53:27;;;;;;;5.38;3.45;;;11.40;99.90;;;;;;4973281;28;20200;-69
2021/12/17 09:55:53;;;;;;;4.30;3.53;;;11.40;99.90;;;;;;4972712;28;20260;-69
2021/12/17 09:58:19;;;;;;;5.65;3.70;;;11.40;99.90;;;;;;4975634;28;20180;-69
2021/12/17 10:00:44;;;;;;;4.50;3.45;;;11.40;99.90;;;;;;4981495;28;20180;-69
2021/12/17 10:03:12;;;;;;;4.53;3.53;;;11.30;99.90;;;;;;4968561;28;20214;-70
2021/12/17 10:05:40;;;;;;;3.97;3.33;;;11.40;99.90;;;;;;4984651;28;20227;-69
2021/12/17 10:08:11;;;;;;;4.22;3.33;;;11.40;99.90;;;;;;4959552;28;20204;-69
2021/12/17 10:10:41;;;;;;;3.88;3.22;;;11.40;99.90;;;;;;4977858;28;20196;-70
2021/12/17 10:13:18;;;;;;;4.28;3.53;;;11.40;99.90;;;;;;4968804;28;20176;-68
2021/12/17 10:15:48;;;;;;;5.40;3.97;;;11.40;99.90;;;;;;4965899;28;20208;-69
2021/12/17 10:18:14;;;;;;;5.95;3.85;;;11.40;99.90;;;;;;4979909;28;20347;-69
2021/12/17 10:20:44;;;;;;;4.10;3.70;;;11.40;99.90;;;;;;4966992;28;20191;-69
2021/12/17 10:23:11;;;;;;;6.78;3.97;;;11.50;99.90;;;;;;4961979;28;20185;-70
2021/12/17 10:25:45;;;;;;;4.32;3.50;;;11.50;99.90;;;;;;4970951;28;20172;-69
2021/12/17 10:28:13;;;;;;;5.72;4.03;;;11.50;99.90;;;;;;4962614;28;20173;-69
2021/12/17 10:30:43;;;;;;;5.10;3.92;;;11.50;99.90;;;;;;4968782;28;20248;-69
2021/12/17 10:33:11;;;;;;;5.85;4.30;;;11.50;99.90;;;;;;4961424;28;20267;-69
2021/12/17 10:35:44;;;;;;;6.70;4.40;;;11.60;99.90;;;;;;4962608;28;20176;-69
2021/12/17 10:38:14;;;;;;;5.75;3.85;;;11.60;99.90;;;;;;4974176;28;20192;-69
2021/12/17 10:40:53;;;;;;;5.25;3.85;;;11.60;99.90;;;;;;4970133;28;20176;-69
2021/12/17 10:43:26;;;;;;;4.45;3.42;;;11.70;99.90;;;;;;4991247;28;20229;-69
2021/12/17 10:46:10;;;;;;;5.90;4.00;;;11.70;99.90;;;;;;4991022;28;20215;-69
2021/12/17 10:51:18;;;;;;;5.82;4.20;;;11.70;99.90;;;;;;4969681;28;20180;-69
2021/12/17 10:53:58;;;;;;;5.65;4.28;;;11.70;99.90;;;;;;4972840;28;20221;-69
2021/12/17 10:56:29;;;;;;;5.15;4.00;;;11.70;99.90;;;;;;4977226;28;20207;-69
2021/12/17 10:58:58;;;;;;;6.57;4.72;;;11.70;99.90;;;;;;5004706;28;20212;-69
2021/12/17 11:01:41;;;;;;;7.68;4.32;;;11.70;99.90;;;;;;4971442;28;20211;-69
2021/12/17 11:04:11;;;;;;;5.28;4.53;;;11.70;99.90;;;;;;4961603;28;20169;-69
2021/12/17 11:06:55;;;;;;;6.05;4.93;;;11.70;99.90;;;;;;4956117;28;20185;-69
2021/12/17 11:09:54;;;;;;;7.15;4.85;;;11.70;99.90;;;;;;4977176;28;20279;-69
2021/12/17 11:12:26;;;;;;;5.90;4.35;;;11.70;99.90;;;;;;4961892;28;20183;-69
2021/12/17 11:14:52;;;;;;;6.28;4.55;;;11.70;99.90;;;;;;4957615;28;20257;-69
2021/12/17 11:17:21;;;;;;;7.47;5.63;;;11.70;99.90;;;;;;4961052;28;20269;-69
2021/12/17 11:19:50;;;;;;;6.03;5.43;;;11.70;99.90;;;;;;4974637;28;20179;-69
2021/12/17 11:22:17;;;;;;;6.53;4.90;;;11.70;99.90;;;;;;5026936;28;20173;-69
2021/12/17 11:24:43;;;;;;;7.20;5.10;;;11.70;99.90;;;;;;4968554;28;20176;-69
2021/12/17 11:27:14;;;;;;;8.77;5.63;;;11.70;99.90;;;;;;4976978;28;20184;-69
2021/12/17 11:29:41;;;;;;;7.38;5.80;;;11.70;99.90;;;;;;4965709;28;20204;-69
2021/12/17 11:32:07;;;;;;;10.20;6.53;;;11.70;99.90;;;;;;4963854;28;20207;-69
2021/12/17 11:34:34;;;;;;;10.25;6.47;;;11.70;99.90;;;;;;4961465;28;20179;-69
2021/12/17 11:37:03;;;;;;;7.43;6.18;;;11.70;99.90;;;;;;4968331;28;20184;-69
2021/12/17 11:39:30;;;;;;;7.78;6.60;;;11.70;99.90;;;;;;4957659;28;20184;-69
2021/12/17 11:42:18;;;;;;;8.20;6.35;;;11.70;99.90;;;;;;4970930;28;20269;-69
2021/12/17 11:45:22;;;;;;;7.93;6.22;;;11.70;99.90;;;;;;4988699;28;20180;-69
2021/12/17 11:47:34;;;;;;;8.95;6.18;;;11.70;99.90;;;;;;4971476;28;20199;-69
2021/12/17 11:50:08;;;;;;;10.80;6.95;;;11.70;99.90;;;;;;4966022;28;20271;-69
2021/12/17 11:52:47;;;;;;;9.55;6.63;;;11.70;99.90;;;;;;4967544;28;20192;-69
2021/12/17 11:55:34;;;;;;;7.70;6.28;;;11.70;99.90;;;;;;4961350;28;20194;-69
2021/12/17 11:58:10;;;;;;;9.82;6.53;;;11.70;99.90;;;;;;4969502;28;20183;-69
2021/12/17 12:00:44;;;;;;;9.45;6.38;;;11.70;99.90;;;;;;4968027;28;20183;-69
2021/12/17 12:03:15;;;;;;;8.25;6.65;;;11.70;99.90;;;;;;4971956;28;20180;-69
2021/12/17 12:05:44;;;;;;;9.02;6.72;;;11.70;99.90;;;;;;4959991;28;20322;-69
2021/12/17 12:08:39;;;;;;;9.43;7.32;;;11.70;99.90;;;;;;4965200;28;20269;-69
2021/12/17 12:11:05;;;;;;;8.38;6.55;;;11.80;99.90;;;;;;4969139;28;20317;-68
2021/12/17 12:13:40;;;;;;;8.93;6.93;;;11.70;99.90;;;;;;4960211;28;20198;-69
2021/12/17 12:16:15;;;;;;;9.98;6.97;;;11.80;99.90;;;;;;4972173;28;20169;-69
2021/12/17 12:18:44;;;;;;;10.15;7.25;;;11.70;99.90;;;;;;4962736;28;20210;-68
2021/12/17 12:21:15;;;;;;;18.45;8.73;;;11.70;99.90;;;;;;4964332;28;20173;-68
2021/12/17 12:23:45;;;;;;;12.45;7.60;;;11.70;99.90;;;;;;4961297;28;20185;-68
2021/12/17 12:26:40;;;;;;;12.52;7.47;;;11.70;99.90;;;;;;4979672;28;20231;-68
2021/12/17 12:29:36;;;;;;;10.70;7.80;;;11.70;99.90;;;;;;4970057;28;20216;-69
2021/12/17 12:32:20;;;;;;;10.90;7.18;;;11.70;99.90;;;;;;4964773;28;20188;-68
2021/12/17 12:34:45;;;;;;;10.05;7.20;;;11.70;99.90;;;;;;4959984;28;20192;-68
2021/12/17 12:37:20;;;;;;;8.65;7.15;;;11.70;99.90;;;;;;4963323;28;20188;-68
2021/12/17 12:39:56;;;;;;;9.82;7.28;;;11.70;99.90;;;;;;4957745;28;20191;-68
2021/12/17 12:42:28;;;;;;;10.57;7.78;;;11.70;99.90;;;;;;4970073;28;20180;-67
2021/12/17 12:44:56;;;;;;;11.82;7.82;;;11.70;99.90;;;;;;4981281;28;20184;-68
2021/12/17 12:47:33;;;;;;;10.80;7.97;;;11.70;99.90;;;;;;4965525;28;20218;-68
2021/12/17 12:50:08;;;;;;;9.43;7.18;;;11.70;99.90;;;;;;4968785;28;20212;-68
2021/12/17 12:52:45;;;;;;;10.93;7.65;;;11.70;99.90;;;;;;4990301;28;20417;-68
2021/12/17 12:55:29;;;;;;;11.27;7.28;;;11.70;99.90;;;;;;4969751;28;20193;-67
2021/12/17 12:57:58;;;;;;;9.32;6.72;;;11.70;99.90;;;;;;4964839;28;20268;-69
2021/12/17 13:00:31;;;;;;;12.00;7.55;;;11.70;99.90;;;;;;4973952;28;20181;-68
2021/12/17 13:03:08;;;;;;;10.75;8.02;;;11.70;99.90;;;;;;4974621;28;20183;-68
2021/12/17 13:05:37;;;;;;;9.50;7.05;;;11.70;99.90;;;;;;4961972;28;20218;-69
2021/12/17 13:08:12;;;;;;;10.65;7.78;;;11.70;99.90;;;;;;4964947;28;20176;-69
2021/12/17 13:10:40;;;;;;;11.32;8.07;;;11.70;99.90;;;;;;4954357;28;20199;-69
2021/12/17 13:13:20;;;;;;;12.35;8.63;;;11.70;99.90;;;;;;4959236;28;20185;-69
2021/12/17 13:24:05;;;;;;;14.07;8.48;;;11.60;99.90;;;;;;4969024;28;20176;-68
2021/12/17 13:26:35;;;;;;;13.35;8.30;;;11.60;99.90;;;;;;4966373;28;20178;-68
2021/12/17 13:29:12;;;;;;;13.05;8.77;;;11.60;99.90;;;;;;4977663;28;20277;-68
2021/12/17 13:31:54;;;;;;;13.00;8.57;;;11.60;99.90;;;;;;4958663;28;20210;-68
2021/12/17 13:34:20;;;;;;;12.57;8.85;;;11.60;99.90;;;;;;4964875;28;20164;-68
2021/12/17 13:36:57;;;;;;;13.77;9.52;;;11.50;99.90;;;;;;4969259;28;20190;-69
2021/12/17 13:39:26;;;;;;;12.25;8.40;;;11.60;99.90;;;;;;4965160;28;20168;-68
2021/12/17 13:41:55;;;;;;;11.50;8.18;;;11.60;99.90;;;;;;4960643;28;20213;-68
2021/12/17 13:44:34;;;;;;;11.57;8.23;;;11.50;99.90;;;;;;4962603;28;20190;-68
2021/12/17 13:47:09;;;;;;;11.45;7.88;;;11.60;99.90;;;;;;4961488;28;20197;-69
2021/12/17 13:49:38;;;;;;;11.23;8.27;;;11.60;99.90;;;;;;4996123;28;20310;-68
2021/12/17 13:52:07;;;;;;;12.35;8.65;;;11.50;99.90;;;;;;4968287;28;20188;-68
2021/12/17 13:54:33;;;;;;;14.05;8.65;;;11.50;99.90;;;;;;4968969;28;20312;-69
2021/12/17 13:57:06;;;;;;;14.90;8.40;;;11.60;99.90;;;;;;4986641;28;20183;-68
2021/12/17 13:59:34;;;;;;;12.77;8.77;;;11.50;99.90;;;;;;4960128;28;20185;-69
2021/12/17 14:02:08;;;;;;;13.38;8.57;;;11.50;99.90;;;;;;4967942;28;20191;-69
2021/12/17 14:04:34;;;;;;;10.45;7.50;;;11.50;99.90;;;;;;4993607;28;20203;-69
2021/12/17 14:07:11;;;;;;;11.35;8.25;;;11.50;99.90;;;;;;4963016;28;20185;-69
2021/12/17 14:09:37;;;;;;;12.00;8.70;;;11.50;99.90;;;;;;4965530;28;20200;-69
2021/12/17 14:12:30;;;;;;;13.43;8.82;;;11.50;99.90;;;;;;4968838;28;20180;-68
2021/12/17 14:14:58;;;;;;;12.80;8.20;;;11.50;99.90;;;;;;5008915;28;20304;-69
2021/12/17 14:17:23;;;;;;;12.23;8.23;;;11.50;99.90;;;;;;4999387;28;20173;-69
2021/12/17 14:19:50;;;;;;;16.13;8.77;;;11.40;99.90;;;;;;4997376;28;20264;-68
2021/12/17 14:22:37;;;;;;;12.73;8.68;;;11.50;99.90;;;;;;4965426;28;20172;-69
2021/12/17 14:25:22;;;;;;;12.20;8.38;;;11.40;99.90;;;;;;4963891;28;20201;-69
2021/12/17 14:27:49;;;;;;;12.40;8.35;;;11.40;99.90;;;;;;4979269;28;20252;-69
2021/12/17 14:30:15;;;;;;;14.48;9.50;;;11.40;99.90;;;;;;4958643;28;20291;-69
2021/12/17 14:32:46;;;;;;;13.55;8.75;;;11.40;99.90;;;;;;4980303;28;20181;-69
2021/12/17 14:35:12;;;;;;;16.10;9.50;;;11.40;99.90;;;;;;4977238;28;20184;-69
2021/12/17 14:38:04;;;;;;;14.77;9.20;;;11.40;99.90;;;;;;4970274;28;20205;-69
2021/12/17 14:40:43;;;;;;;13.38;8.95;;;11.40;99.90;;;;;;4969335;28;20562;-69
2021/12/17 14:43:34;;;;;;;14.38;9.52;;;11.40;99.90;;;;;;4971630;28;20176;-69
2021/12/17 14:46:20;;;;;;;14.88;9.13;;;11.40;99.90;;;;;;4954103;28;20184;-68
2021/12/17 15:04:44;;;;;;;18.55;11.65;;;11.40;99.90;;;;;;4962875;28;20177;-69
2021/12/17 15:07:15;;;;;;;18.15;11.43;;;11.40;99.90;;;;;;4964919;28;20271;-68
2021/12/17 15:09:44;;;;;;;16.35;10.60;;;11.40;99.90;;;;;;4954729;28;20655;-69
2021/12/17 15:12:55;;;;;;;15.98;10.95;;;11.40;99.90;;;;;;4984991;28;20231;-68
2021/12/17 15:15:06;;;;;;;18.45;10.60;;;11.40;99.90;;;;;;4969925;28;20193;-69
2021/12/17 15:17:34;;;;;;;16.60;10.68;;;11.40;99.90;;;;;;4971558;28;20173;-69
2021/12/17 15:20:06;;;;;;;18.02;11.90;;;11.40;99.90;;;;;;4986380;28;20197;-68
2021/12/17 15:22:31;;;;;;;17.20;11.25;;;11.30;99.90;;;;;;4969952;28;20188;-68
2021/12/17 15:24:59;;;;;;;18.33;11.88;;;11.40;99.90;;;;;;4964790;28;20184;-69
2021/12/17 15:27:27;;;;;;;19.30;12.27;;;11.40;99.90;;;;;;4964781;28;20181;-68
2021/12/17 15:29:53;;;;;;;18.38;11.85;;;11.40;99.90;;;;;;4962674;28;20294;-68
2021/12/17 15:32:21;;;;;;;17.88;11.85;;;11.40;99.90;;;;;;4955792;28;20188;-67
2021/12/17 15:34:47;;;;;;;17.58;10.88;;;11.30;99.90;;;;;;4958369;28;20268;-65
2021/12/17 15:37:14;;;;;;;17.35;11.95;;;11.40;99.90;;;;;;4978111;28;20275;-66
2021/12/17 15:39:40;;;;;;;18.40;12.13;;;11.40;99.90;;;;;;4956974;28;20184;-66
2021/12/17 15:42:09;;;;;;;19.17;11.82;;;11.40;99.90;;;;;;4958374;28;20277;-66
2021/12/17 15:44:36;;;;;;;19.45;12.07;;;11.30;99.90;;;;;;4976080;28;20200;-67
2021/12/17 15:47:05;;;;;;;16.95;11.13;;;11.30;99.90;;;;;;4964748;28;20231;-66
2021/12/17 15:49:33;;;;;;;20.20;11.52;;;11.40;99.90;;;;;;4961477;28;20310;-66
2021/12/17 15:52:00;;;;;;;18.65;10.95;;;11.30;99.90;;;;;;4969856;28;20346;-65
2021/12/17 15:54:26;;;;;;;15.82;10.90;;;11.40;99.90;;;;;;4959278;28;20206;-66
2021/12/17 15:56:52;;;;;;;19.25;12.18;;;11.40;99.90;;;;;;4994801;28;20323;-66
2021/12/17 15:59:17;;;;;;;16.42;11.40;;;11.40;99.90;;;;;;4958736;28;20264;-66
2021/12/17 16:01:43;;;;;;;18.27;11.50;;;11.40;99.90;;;;;;4990233;28;20231;-67
2021/12/17 16:04:11;;;;;;;18.20;10.52;;;11.40;99.90;;;;;;5009821;28;20246;-67
2021/12/17 16:06:36;;;;;;;19.55;11.82;;;11.40;99.90;;;;;;4977148;28;20172;-66
2021/12/17 16:09:14;;;;;;;18.58;12.30;;;11.40;99.90;;;;;;4968164;28;20211;-67
2021/12/17 16:12:06;;;;;;;19.15;12.38;;;11.40;99.90;;;;;;4958380;28;20167;-67
2021/12/17 16:22:46;;;;;;;18.50;12.13;;;11.40;99.90;;;;;;4964299;28;20186;-66
2021/12/17 16:25:14;;;;;;;19.17;12.65;;;11.30;99.90;;;;;;4983153;28;20204;-67
2021/12/17 16:27:40;;;;;;;22.15;12.95;;;11.40;99.90;;;;;;4956731;28;20417;-67